Time;durP1;ratioP1;P1;durP2;ratioP2;P2;SDS_P1;SDS_P2;PMS_P1;PMS_P2;Temp;Humidity;BMP_temperature;BMP_pressure;BME280_temperature;BME280_humidity;BME280_pressure;Samples;Min_cycle;Max_cycle;Signal;HPM_P1;HPM_P2
2022/06/25 00:00:02;;;;;;;111.88;32.05;;;17.20;90.70;;;;;;5076811;28;20244;-86
2022/06/25 00:02:27;;;;;;;40.92;29.27;;;17.20;90.60;;;;;;5076537;28;20631;-86
2022/06/25 00:07:37;;;;;;;81.15;35.13;;;17.20;90.40;;;;;;5076886;28;20683;-86
2022/06/25 00:10:03;;;;;;;54.75;35.35;;;17.20;90.80;;;;;;5075727;28;20203;-87
2022/06/25 00:12:31;;;;;;;39.13;33.30;;;17.10;91.00;;;;;;5077759;28;20168;-86
2022/06/25 00:14:57;;;;;;;44.28;34.50;;;17.10;91.10;;;;;;5077860;28;20221;-86
2022/06/25 00:17:23;;;;;;;51.97;34.90;;;17.00;91.00;;;;;;5076018;28;20183;-86
2022/06/25 00:19:48;;;;;;;49.95;35.05;;;17.00;91.00;;;;;;5076874;28;20217;-86
2022/06/25 00:22:14;;;;;;;51.50;39.75;;;17.00;91.00;;;;;;5077084;28;20175;-86
2022/06/25 00:24:39;;;;;;;45.92;37.33;;;17.00;91.20;;;;;;5076530;28;20195;-86
2022/06/25 00:27:06;;;;;;;46.35;34.45;;;17.00;91.40;;;;;;5076311;28;20176;-87
2022/06/25 00:29:31;;;;;;;49.78;34.90;;;17.10;91.30;;;;;;5076528;28;20199;-87
2022/06/25 00:31:57;;;;;;;47.92;38.47;;;17.00;91.10;;;;;;5076986;28;20597;-86
2022/06/25 00:34:22;;;;;;;47.65;36.80;;;17.00;91.20;;;;;;5077371;28;20179;-86
2022/06/25 00:36:48;;;;;;;42.78;37.03;;;17.00;91.20;;;;;;5076424;28;20176;-86
2022/06/25 00:39:13;;;;;;;48.72;38.83;;;17.10;91.40;;;;;;5076440;28;20182;-87
2022/06/25 00:41:39;;;;;;;51.58;39.42;;;17.10;91.30;;;;;;5077309;28;20251;-86
2022/06/25 00:44:09;;;;;;;60.53;42.55;;;17.20;91.70;;;;;;5076462;28;20672;-86
2022/06/25 00:46:35;;;;;;;56.90;42.60;;;17.20;92.00;;;;;;5076336;28;20159;-87
2022/06/25 00:49:02;;;;;;;53.42;41.95;;;17.20;92.20;;;;;;5075673;28;20168;-88
2022/06/25 00:51:32;;;;;;;54.97;42.80;;;17.10;92.40;;;;;;5075660;28;20193;-88
2022/06/25 00:54:03;;;;;;;63.50;41.97;;;17.10;92.50;;;;;;5075098;28;20221;-88
2022/06/25 00:56:33;;;;;;;68.70;42.58;;;17.10;92.50;;;;;;5075648;28;20236;-88
2022/06/25 00:59:02;;;;;;;70.22;43.67;;;17.10;92.50;;;;;;5075783;28;20622;-88
2022/06/25 01:01:29;;;;;;;64.78;41.63;;;17.00;92.50;;;;;;5075417;28;20210;-88
2022/06/25 01:03:55;;;;;;;67.45;38.08;;;17.00;92.50;;;;;;5075611;28;20199;-88
2022/06/25 01:06:20;;;;;;;73.55;42.33;;;17.00;92.40;;;;;;5075502;28;20507;-87
2022/06/25 01:08:46;;;;;;;58.10;40.28;;;16.70;92.40;;;;;;5075676;28;20183;-88
2022/06/25 01:11:12;;;;;;;57.33;38.55;;;16.70;92.50;;;;;;5073999;28;20283;-88
2022/06/25 01:13:37;;;;;;;48.47;37.85;;;16.80;92.60;;;;;;5075310;28;20177;-87
2022/06/25 01:16:03;;;;;;;46.97;36.22;;;16.90;92.60;;;;;;5075156;28;20175;-87
2022/06/25 01:18:29;;;;;;;45.35;36.75;;;16.90;92.60;;;;;;5075409;28;20168;-88
2022/06/25 01:20:55;;;;;;;45.78;36.97;;;17.00;92.60;;;;;;5075073;28;20564;-87
2022/06/25 01:23:21;;;;;;;47.17;36.58;;;16.90;92.50;;;;;;5075060;28;20741;-88
2022/06/25 01:25:46;;;;;;;63.28;43.65;;;16.90;92.50;;;;;;5074977;28;20591;-88
2022/06/25 01:28:12;;;;;;;69.88;41.70;;;16.90;92.50;;;;;;5073779;28;20171;-88
2022/06/25 01:30:37;;;;;;;68.18;42.50;;;16.90;92.70;;;;;;5074909;28;20207;-87
2022/06/25 01:33:07;;;;;;;124.13;44.97;;;16.90;92.60;;;;;;5074909;28;20250;-88
2022/06/25 01:35:32;;;;;;;139.35;47.35;;;16.90;92.80;;;;;;5074757;28;20259;-88
2022/06/25 01:37:58;;;;;;;216.80;49.20;;;16.90;92.80;;;;;;5074712;28;20684;-88
2022/06/25 01:40:24;;;;;;;350.25;55.65;;;16.80;92.90;;;;;;5074628;28;20707;-88
2022/06/25 01:42:58;;;;;;;315.35;55.15;;;16.80;93.20;;;;;;5074647;28;20210;-88
2022/06/25 01:45:24;;;;;;;279.80;57.20;;;16.70;93.40;;;;;;5074845;28;20238;-88
2022/06/25 01:47:50;;;;;;;221.63;53.85;;;16.70;93.60;;;;;;5074538;28;20186;-88
2022/06/25 01:50:16;;;;;;;92.18;49.30;;;16.70;93.70;;;;;;5074447;28;20740;-88
2022/06/25 01:52:48;;;;;;;96.50;46.85;;;16.70;93.80;;;;;;5074482;28;20175;-88
2022/06/25 01:55:15;;;;;;;110.25;40.22;;;16.80;93.80;;;;;;5074779;28;20555;-88
2022/06/25 01:57:41;;;;;;;61.58;39.35;;;16.70;93.70;;;;;;5074151;28;20214;-88
2022/06/25 02:00:10;;;;;;;98.53;38.38;;;16.70;93.70;;;;;;5074223;28;20669;-89
2022/06/25 02:02:37;;;;;;;95.78;39.35;;;16.70;93.70;;;;;;5074254;28;20183;-88
2022/06/25 02:05:04;;;;;;;43.35;39.05;;;16.70;93.60;;;;;;5074095;28;20191;-88
2022/06/25 02:07:30;;;;;;;121.28;40.40;;;16.80;93.60;;;;;;5074483;28;20638;-87
2022/06/25 02:09:55;;;;;;;140.05;41.80;;;16.70;93.40;;;;;;5074068;28;20210;-88
2022/06/25 02:12:21;;;;;;;212.25;50.63;;;16.70;93.30;;;;;;5074075;28;20164;-88
2022/06/25 02:14:46;;;;;;;210.45;46.15;;;16.50;93.20;;;;;;5074355;28;20217;-88
2022/06/25 02:17:12;;;;;;;212.57;48.55;;;16.50;93.30;;;;;;5073994;28;20667;-88
2022/06/25 02:19:38;;;;;;;198.65;53.33;;;16.40;93.30;;;;;;5074107;28;20178;-87
2022/06/25 02:22:03;;;;;;;218.82;51.70;;;16.20;93.50;;;;;;5072860;28;20262;-87
2022/06/25 02:24:29;;;;;;;225.25;55.08;;;16.10;93.60;;;;;;5073955;28;20613;-88
2022/06/25 02:26:55;;;;;;;214.75;54.63;;;16.00;93.70;;;;;;5072817;28;20171;-88
2022/06/25 02:29:20;;;;;;;192.45;54.78;;;16.00;93.80;;;;;;5074052;28;20175;-88
2022/06/25 02:31:46;;;;;;;183.20;56.25;;;15.90;93.90;;;;;;5074463;28;20195;-87
2022/06/25 02:34:11;;;;;;;178.40;58.53;;;15.80;94.20;;;;;;5074077;28;20176;-88
2022/06/25 02:36:37;;;;;;;61.95;55.33;;;15.80;94.40;;;;;;5073779;28;20659;-88
2022/06/25 02:39:03;;;;;;;70.30;52.50;;;15.90;94.50;;;;;;5073652;28;20171;-89
2022/06/25 02:41:28;;;;;;;171.95;51.53;;;16.00;94.50;;;;;;5073698;28;20191;-88
2022/06/25 02:43:54;;;;;;;170.70;49.15;;;16.00;94.50;;;;;;5073571;28;20619;-88
2022/06/25 02:46:19;;;;;;;111.40;49.55;;;15.90;94.50;;;;;;5072402;28;20528;-88
2022/06/25 02:48:45;;;;;;;65.28;46.10;;;15.90;94.60;;;;;;5073613;28;20194;-88
2022/06/25 02:51:10;;;;;;;136.65;48.97;;;16.00;94.70;;;;;;5073389;28;20737;-87
2022/06/25 02:53:36;;;;;;;119.53;45.83;;;15.90;94.60;;;;;;5073766;28;20175;-89
2022/06/25 02:58:55;;;;;;;96.32;47.28;;;15.80;94.70;;;;;;5074779;28;20162;-88
2022/06/25 03:01:25;;;;;;;122.38;48.53;;;15.80;94.80;;;;;;5072174;28;20202;-88
2022/06/25 03:03:52;;;;;;;103.13;46.80;;;15.80;94.80;;;;;;5073465;28;20281;-88
2022/06/25 03:06:18;;;;;;;119.07;47.38;;;15.80;94.80;;;;;;5073578;28;20171;-88
2022/06/25 03:08:44;;;;;;;53.72;44.47;;;15.70;94.80;;;;;;5073477;28;20183;-88
2022/06/25 03:11:10;;;;;;;96.65;45.28;;;15.80;94.90;;;;;;5073394;28;20219;-88
2022/06/25 03:13:36;;;;;;;64.00;44.03;;;15.80;95.00;;;;;;5073623;28;20276;-88
2022/06/25 03:16:05;;;;;;;59.65;41.03;;;15.90;95.00;;;;;;5072061;28;20221;-88
2022/06/25 03:18:31;;;;;;;48.30;38.17;;;16.00;95.00;;;;;;5073059;28;20168;-88
2022/06/25 03:20:56;;;;;;;40.85;36.45;;;15.90;94.90;;;;;;5073393;28;20297;-87
2022/06/25 03:23:25;;;;;;;35.35;31.92;;;15.90;95.00;;;;;;5073466;28;20205;-88
2022/06/25 03:25:51;;;;;;;38.40;33.72;;;16.00;94.90;;;;;;5073358;28;20164;-88
2022/06/25 03:28:16;;;;;;;41.92;35.35;;;16.00;94.90;;;;;;5073267;28;20514;-88
2022/06/25 03:30:42;;;;;;;36.65;33.10;;;15.90;94.80;;;;;;5073124;28;20196;-88
2022/06/25 03:33:08;;;;;;;34.42;30.85;;;15.80;94.70;;;;;;5073251;28;20587;-88
2022/06/25 03:35:33;;;;;;;35.17;31.35;;;15.90;94.70;;;;;;5073456;28;20208;-88
2022/06/25 03:37:59;;;;;;;41.67;33.58;;;15.80;94.60;;;;;;5073202;28;20171;-88
2022/06/25 03:40:25;;;;;;;121.55;36.50;;;15.70;94.50;;;;;;5073167;28;20187;-88
2022/06/25 03:42:50;;;;;;;43.28;35.85;;;15.60;94.40;;;;;;5073013;28;20172;-87
2022/06/25 03:45:16;;;;;;;37.97;34.55;;;15.60;94.50;;;;;;5073591;28;20175;-88
2022/06/25 03:47:49;;;;;;;38.10;34.20;;;15.60;94.50;;;;;;5073343;28;20164;-88
2022/06/25 03:50:16;;;;;;;38.42;34.65;;;15.70;94.50;;;;;;5073025;28;20184;-87
2022/06/25 03:52:42;;;;;;;98.63;37.38;;;15.80;94.50;;;;;;5073089;28;20187;-88
2022/06/25 03:55:08;;;;;;;42.47;38.38;;;15.70;94.40;;;;;;5073011;28;20233;-87
2022/06/25 03:57:34;;;;;;;39.80;35.90;;;15.70;94.40;;;;;;5072839;28;20410;-87
2022/06/25 04:00:00;;;;;;;38.03;34.47;;;15.70;94.50;;;;;;5072926;28;20191;-88
2022/06/25 04:02:26;;;;;;;49.45;37.25;;;15.80;94.50;;;;;;5073247;28;20584;-88
2022/06/25 04:04:51;;;;;;;67.75;37.85;;;15.80;94.40;;;;;;5074438;28;20234;-87
2022/06/25 04:07:17;;;;;;;54.90;39.33;;;15.80;94.50;;;;;;5073139;28;20214;-87
2022/06/25 04:09:42;;;;;;;41.80;37.67;;;15.80;94.60;;;;;;5072890;28;20176;-87
2022/06/25 04:12:08;;;;;;;48.10;36.78;;;16.00;94.70;;;;;;5072575;28;20255;-88
2022/06/25 04:14:33;;;;;;;39.75;35.65;;;16.10;94.60;;;;;;5072678;28;20229;-87
2022/06/25 04:16:59;;;;;;;36.50;33.60;;;16.10;94.70;;;;;;5072560;28;20224;-87
2022/06/25 04:19:24;;;;;;;34.17;31.23;;;16.20;94.60;;;;;;5072497;28;20170;-88
2022/06/25 04:21:51;;;;;;;38.17;34.58;;;16.30;94.60;;;;;;5072510;28;20198;-87
2022/06/25 04:24:17;;;;;;;40.95;36.33;;;16.40;94.60;;;;;;5072781;28;20277;-88
2022/06/25 04:26:43;;;;;;;43.50;37.10;;;16.40;94.60;;;;;;5072633;28;20198;-87
2022/06/25 04:29:08;;;;;;;61.10;40.10;;;16.30;94.50;;;;;;5073161;28;20202;-88
2022/06/25 04:31:38;;;;;;;48.63;41.03;;;16.30;94.50;;;;;;5076080;28;20581;-87
2022/06/25 04:34:04;;;;;;;49.35;42.97;;;16.30;94.70;;;;;;5076070;28;20240;-88
2022/06/25 04:36:30;;;;;;;51.50;41.70;;;16.40;94.70;;;;;;5075969;28;20174;-88
2022/06/25 04:38:56;;;;;;;42.72;38.92;;;16.40;94.80;;;;;;5075818;28;20168;-88
2022/06/25 04:41:22;;;;;;;41.13;37.17;;;16.50;94.80;;;;;;5075842;28;20199;-87
2022/06/25 04:43:48;;;;;;;49.85;39.67;;;16.60;94.80;;;;;;5075661;28;20195;-87
2022/06/25 04:46:14;;;;;;;50.65;42.55;;;16.60;94.80;;;;;;5075727;28;20167;-87
2022/06/25 04:48:40;;;;;;;46.67;41.92;;;16.60;94.80;;;;;;5075821;28;20183;-87
2022/06/25 04:51:06;;;;;;;46.08;41.65;;;16.70;94.80;;;;;;5075614;28;20211;-88
2022/06/25 04:53:32;;;;;;;52.05;43.55;;;16.70;94.80;;;;;;5075672;28;20176;-88
2022/06/25 04:55:58;;;;;;;49.92;44.83;;;16.80;94.80;;;;;;5075438;28;20170;-88
2022/06/25 04:58:23;;;;;;;50.53;44.75;;;16.90;94.90;;;;;;5075509;28;20294;-87
2022/06/25 05:00:49;;;;;;;53.83;45.38;;;17.00;94.90;;;;;;5075707;28;20601;-88
2022/06/25 05:03:15;;;;;;;51.13;45.58;;;17.10;95.00;;;;;;5075416;28;20673;-88
2022/06/25 05:05:40;;;;;;;49.10;43.70;;;17.20;95.00;;;;;;5075553;28;20175;-88
2022/06/25 05:08:06;;;;;;;46.92;42.42;;;17.20;95.00;;;;;;5075360;28;20250;-88
2022/06/25 05:10:32;;;;;;;46.65;41.90;;;17.20;94.90;;;;;;5075289;28;20274;-88
2022/06/25 05:13:13;;;;;;;47.92;43.08;;;17.20;94.90;;;;;;5075361;28;20171;-88
2022/06/25 05:15:40;;;;;;;56.47;45.67;;;17.20;94.90;;;;;;5075491;28;20151;-88
2022/06/25 05:18:11;;;;;;;56.25;47.03;;;17.40;95.00;;;;;;5073968;28;20255;-87
2022/06/25 05:20:41;;;;;;;51.13;44.00;;;17.50;95.10;;;;;;5075223;28;20187;-88
2022/06/25 05:23:08;;;;;;;51.40;45.72;;;17.50;95.10;;;;;;5074947;28;20156;-87
2022/06/25 05:25:34;;;;;;;55.08;47.53;;;17.70;95.20;;;;;;5075047;28;20171;-87
2022/06/25 05:27:59;;;;;;;57.67;51.42;;;17.70;95.20;;;;;;5075289;28;20289;-87
2022/06/25 05:30:25;;;;;;;54.67;46.80;;;17.80;95.20;;;;;;5075081;28;20195;-87
2022/06/25 05:32:51;;;;;;;52.63;47.13;;;17.90;95.20;;;;;;5075120;28;20171;-87
2022/06/25 05:35:17;;;;;;;52.38;46.80;;;18.00;95.10;;;;;;5074834;28;20518;-87
2022/06/25 05:37:42;;;;;;;53.85;47.28;;;18.20;95.20;;;;;;5075061;28;20254;-88
2022/06/25 05:40:09;;;;;;;48.22;41.63;;;18.20;95.10;;;;;;5074316;28;20183;-87
2022/06/25 05:42:36;;;;;;;46.65;41.95;;;18.30;95.00;;;;;;5074732;28;20167;-87
2022/06/25 05:45:02;;;;;;;48.83;43.70;;;18.30;94.90;;;;;;5073350;28;20586;-87
2022/06/25 05:47:28;;;;;;;48.65;42.78;;;18.50;94.80;;;;;;5074438;28;20645;-87
2022/06/25 05:49:53;;;;;;;42.67;38.17;;;18.70;94.80;;;;;;5074428;28;20241;-88
2022/06/25 05:52:19;;;;;;;40.75;36.55;;;18.70;94.70;;;;;;5074696;28;20175;-87
2022/06/25 05:54:44;;;;;;;40.67;36.38;;;18.70;94.30;;;;;;5073091;28;20183;-87
2022/06/25 05:57:10;;;;;;;39.58;35.67;;;18.70;94.20;;;;;;5074282;28;20699;-87
2022/06/25 05:59:35;;;;;;;38.70;34.90;;;18.90;94.10;;;;;;5074252;28;20167;-87
2022/06/25 06:02:01;;;;;;;37.25;33.58;;;19.00;94.10;;;;;;5074223;28;20574;-86
2022/06/25 06:04:27;;;;;;;34.90;31.23;;;19.10;94.00;;;;;;5074414;28;20248;-87
2022/06/25 06:06:52;;;;;;;34.67;31.10;;;19.20;93.70;;;;;;5074212;28;20191;-87
2022/06/25 06:09:18;;;;;;;32.88;29.63;;;19.30;93.70;;;;;;5074113;28;20172;-87
2022/06/25 06:11:43;;;;;;;33.10;29.73;;;19.20;92.90;;;;;;5074227;28;20196;-87
2022/06/25 06:14:09;;;;;;;30.95;27.83;;;19.20;92.50;;;;;;5074010;28;20185;-87
2022/06/25 06:16:35;;;;;;;31.65;28.13;;;19.30;92.50;;;;;;5074279;28;20664;-87
2022/06/25 06:19:01;;;;;;;29.42;26.48;;;19.40;92.10;;;;;;5074386;28;20163;-87
2022/06/25 06:21:27;;;;;;;32.28;29.27;;;19.50;92.10;;;;;;5073726;28;20194;-88
2022/06/25 06:23:52;;;;;;;31.83;28.65;;;19.70;92.10;;;;;;5073752;28;20276;-87
2022/06/25 06:26:18;;;;;;;28.95;25.88;;;19.80;92.00;;;;;;5073781;28;20176;-87
2022/06/25 06:28:43;;;;;;;31.40;28.40;;;19.80;91.80;;;;;;5073818;28;20163;-87
2022/06/25 06:31:09;;;;;;;34.08;27.80;;;20.00;91.80;;;;;;5073750;28;20187;-87
2022/06/25 06:33:35;;;;;;;31.17;28.13;;;20.00;90.90;;;;;;5073649;28;20213;-87
2022/06/25 06:36:01;;;;;;;28.08;25.20;;;20.00;90.50;;;;;;5073590;28;20671;-87
2022/06/25 06:38:27;;;;;;;28.42;25.85;;;20.10;90.50;;;;;;5073569;28;20254;-87
2022/06/25 06:40:52;;;;;;;27.13;23.90;;;20.10;90.00;;;;;;5073596;28;20195;-86
2022/06/25 06:43:18;;;;;;;23.73;21.58;;;20.30;90.40;;;;;;5073520;28;20746;-87
2022/06/25 06:45:43;;;;;;;21.70;19.40;;;20.40;89.90;;;;;;5073399;28;20265;-87
2022/06/25 06:48:09;;;;;;;19.83;17.80;;;20.40;88.60;;;;;;5073457;28;20167;-87
2022/06/25 06:50:34;;;;;;;19.02;16.98;;;20.50;88.00;;;;;;5073387;28;20328;-87
2022/06/25 06:53:00;;;;;;;17.65;15.88;;;20.60;88.10;;;;;;5072983;28;20276;-87
2022/06/25 06:55:25;;;;;;;17.30;15.45;;;20.70;87.80;;;;;;5073498;28;20202;-86
2022/06/25 06:57:51;;;;;;;15.55;13.85;;;20.90;88.30;;;;;;5073285;28;20715;-87
2022/06/25 07:00:17;;;;;;;15.40;13.25;;;20.90;87.40;;;;;;5072160;28;20678;-86
2022/06/25 07:02:43;;;;;;;15.10;13.80;;;20.90;85.80;;;;;;5073405;28;20171;-86
2022/06/25 07:05:08;;;;;;;16.08;14.45;;;21.00;86.50;;;;;;5073226;28;20191;-87
2022/06/25 07:07:34;;;;;;;15.80;13.90;;;21.10;86.80;;;;;;5073235;28;20185;-86
2022/06/25 07:10:00;;;;;;;15.05;13.65;;;21.10;85.80;;;;;;5073293;28;20184;-86
2022/06/25 07:12:26;;;;;;;14.23;12.77;;;21.20;86.10;;;;;;5073263;28;20175;-86
2022/06/25 07:14:51;;;;;;;13.30;12.20;;;21.20;86.20;;;;;;5071920;28;20599;-86
2022/06/25 07:17:17;;;;;;;14.65;13.23;;;21.40;86.40;;;;;;5073238;28;20209;-86
2022/06/25 07:19:42;;;;;;;14.35;12.90;;;21.20;85.20;;;;;;5073530;28;20190;-86
2022/06/25 07:22:08;;;;;;;12.93;10.63;;;21.20;84.70;;;;;;5073355;28;20266;-87
2022/06/25 07:24:33;;;;;;;12.85;11.65;;;21.30;83.90;;;;;;5073339;28;20278;-87
2022/06/25 07:26:59;;;;;;;13.73;11.48;;;21.40;84.80;;;;;;5073261;28;20190;-87
2022/06/25 07:29:24;;;;;;;11.60;10.40;;;21.50;84.20;;;;;;5073103;28;20167;-87
2022/06/25 07:31:51;;;;;;;13.85;11.40;;;21.70;84.40;;;;;;5073084;28;20215;-87
2022/06/25 07:34:17;;;;;;;12.80;11.57;;;21.70;84.10;;;;;;5073721;28;20164;-87
2022/06/25 07:36:43;;;;;;;12.68;10.93;;;21.90;84.50;;;;;;5073199;28;20177;-87
2022/06/25 07:39:08;;;;;;;12.93;11.73;;;21.80;82.30;;;;;;5073440;28;20168;-87
2022/06/25 07:41:34;;;;;;;15.05;11.38;;;21.90;83.40;;;;;;5071851;28;20579;-87
2022/06/25 07:44:00;;;;;;;13.10;11.88;;;22.00;83.40;;;;;;5072969;28;20634;-86
2022/06/25 07:46:26;;;;;;;13.32;10.98;;;22.20;82.00;;;;;;5073000;28;20191;-86
2022/06/25 07:48:52;;;;;;;14.32;12.38;;;22.20;81.80;;;;;;5072979;28;20718;-86
2022/06/25 07:54:03;;;;;;;15.00;13.48;;;22.30;81.80;;;;;;5073418;28;20174;-86
2022/06/25 07:56:28;;;;;;;15.27;13.90;;;22.30;81.50;;;;;;5072873;28;20212;-86
2022/06/25 07:58:54;;;;;;;15.05;13.02;;;22.20;81.30;;;;;;5072960;28;20180;-87
2022/06/25 08:01:20;;;;;;;16.08;14.18;;;22.20;81.30;;;;;;5072932;28;20195;-86
2022/06/25 08:03:45;;;;;;;18.23;15.07;;;22.20;80.00;;;;;;5074950;28;20548;-86
2022/06/25 08:06:12;;;;;;;16.17;14.55;;;22.30;80.80;;;;;;5075365;28;20168;-87
2022/06/25 08:08:39;;;;;;;16.98;15.27;;;22.30;80.90;;;;;;5076853;28;20202;-87
2022/06/25 08:11:05;;;;;;;16.02;14.57;;;22.40;81.40;;;;;;5076509;28;20665;-86
2022/06/25 08:13:30;;;;;;;16.85;15.15;;;22.50;81.00;;;;;;5076635;28;20186;-86
2022/06/25 08:15:56;;;;;;;17.05;15.35;;;22.50;80.30;;;;;;5076444;28;20645;-87
2022/06/25 08:18:22;;;;;;;17.73;15.02;;;22.50;80.00;;;;;;5076638;28;20179;-86
2022/06/25 08:20:48;;;;;;;16.73;15.15;;;22.70;80.80;;;;;;5076106;28;20184;-86
2022/06/25 08:23:14;;;;;;;19.58;16.10;;;22.80;80.40;;;;;;5076036;28;20170;-87
2022/06/25 08:25:39;;;;;;;16.42;14.77;;;22.80;78.90;;;;;;5076361;28;20591;-88
2022/06/25 08:28:05;;;;;;;15.65;14.13;;;22.90;79.60;;;;;;5076008;28;20167;-86
2022/06/25 08:30:32;;;;;;;15.90;14.23;;;22.90;77.60;;;;;;5075878;28;20188;-86
2022/06/25 08:32:58;;;;;;;16.95;15.43;;;23.00;78.10;;;;;;5076253;28;20254;-87
2022/06/25 08:35:23;;;;;;;18.20;16.50;;;23.00;76.70;;;;;;5075948;28;20610;-88
2022/06/25 08:37:50;;;;;;;17.00;15.40;;;22.90;76.80;;;;;;5076007;28;20167;-87
2022/06/25 08:40:18;;;;;;;15.88;14.38;;;23.20;78.20;;;;;;5075760;28;20218;-87
2022/06/25 08:42:43;;;;;;;15.15;13.75;;;23.50;78.60;;;;;;5076003;28;20531;-86
2022/06/25 08:45:09;;;;;;;14.23;12.93;;;23.50;77.00;;;;;;5075932;28;20195;-87
2022/06/25 08:47:43;;;;;;;14.73;13.43;;;23.50;75.90;;;;;;5075931;28;20235;-87
2022/06/25 08:50:10;;;;;;;13.95;12.65;;;23.70;75.30;;;;;;5075612;28;20669;-87
2022/06/25 08:52:37;;;;;;;14.93;13.52;;;23.70;76.30;;;;;;5075592;28;20164;-87
2022/06/25 08:55:03;;;;;;;15.68;14.15;;;23.80;74.50;;;;;;5075736;28;20171;-87
2022/06/25 08:57:30;;;;;;;16.13;14.63;;;23.70;74.20;;;;;;5075410;28;20192;-87
2022/06/25 08:59:56;;;;;;;15.50;13.52;;;23.80;74.60;;;;;;5075691;28;20241;-86
2022/06/25 09:02:21;;;;;;;14.30;12.70;;;24.00;74.50;;;;;;5075636;28;20168;-87
2022/06/25 09:04:47;;;;;;;14.52;13.13;;;24.30;73.70;;;;;;5075260;28;20665;-87
2022/06/25 09:07:21;;;;;;;14.13;12.73;;;24.40;73.80;;;;;;5075412;28;20634;-87
2022/06/25 09:09:49;;;;;;;10.90;9.82;;;24.40;74.30;;;;;;5075801;28;20148;-87
2022/06/25 09:12:15;;;;;;;10.38;7.88;;;24.10;70.10;;;;;;5075742;28;20175;-86
2022/06/25 09:14:42;;;;;;;5.65;4.45;;;24.40;71.30;;;;;;5073747;28;20207;-87
2022/06/25 09:17:13;;;;;;;8.95;5.93;;;24.30;64.90;;;;;;5075345;28;20237;-88
2022/06/25 09:19:47;;;;;;;7.20;5.60;;;24.30;68.70;;;;;;5075425;28;20656;-88
2022/06/25 09:22:19;;;;;;;8.45;6.60;;;24.60;69.60;;;;;;5075151;28;20175;-88
2022/06/25 09:24:55;;;;;;;5.75;5.25;;;24.70;68.20;;;;;;5075046;28;20199;-87
2022/06/25 09:27:38;;;;;;;9.13;7.72;;;24.90;69.00;;;;;;5075048;28;20171;-87
2022/06/25 09:30:12;;;;;;;6.50;5.82;;;24.70;64.90;;;;;;5075081;28;20274;-88
2022/06/25 09:32:45;;;;;;;9.02;6.93;;;24.80;65.70;;;;;;5075083;28;20166;-88
2022/06/25 09:35:14;;;;;;;16.30;8.40;;;24.30;68.20;;;;;;5075213;28;20544;-88
2022/06/25 09:37:40;;;;;;;9.05;7.80;;;24.20;66.90;;;;;;5075382;28;20175;-89
2022/06/25 09:40:09;;;;;;;7.88;6.88;;;24.20;68.90;;;;;;5076757;28;20225;-87
2022/06/25 09:42:35;;;;;;;7.85;6.78;;;24.50;68.30;;;;;;5074982;28;20695;-86
2022/06/25 09:45:11;;;;;;;7.38;6.43;;;24.30;68.20;;;;;;5074604;28;20238;-86
2022/06/25 09:47:44;;;;;;;14.55;6.32;;;24.20;69.40;;;;;;5074752;28;20183;-88
2022/06/25 09:50:15;;;;;;;7.50;6.03;;;24.50;69.80;;;;;;5074533;28;20187;-87
2022/06/25 09:52:59;;;;;;;5.47;5.07;;;24.60;65.80;;;;;;5074417;28;20167;-88
2022/06/25 09:55:37;;;;;;;8.20;5.15;;;24.80;64.50;;;;;;5074474;28;20202;-87
2022/06/25 09:58:03;;;;;;;8.48;5.25;;;24.90;67.00;;;;;;5074414;28;20191;-88
2022/06/25 10:00:30;;;;;;;5.78;5.18;;;25.20;66.10;;;;;;5074755;28;20188;-88
2022/06/25 10:02:57;;;;;;;5.53;4.72;;;25.60;63.80;;;;;;5074472;28;20687;-89
2022/06/25 10:05:42;;;;;;;6.10;3.92;;;25.30;63.30;;;;;;5074159;28;20665;-89
2022/06/25 10:08:13;;;;;;;4.65;4.10;;;25.30;63.60;;;;;;5074249;28;20165;-86
2022/06/25 10:10:41;;;;;;;4.93;4.43;;;25.50;64.30;;;;;;5074350;28;20194;-89
2022/06/25 10:13:07;;;;;;;4.75;4.28;;;25.70;61.70;;;;;;5073092;28;20270;-89
2022/06/25 10:15:33;;;;;;;10.70;4.13;;;26.10;62.70;;;;;;5074551;28;20179;-87
2022/06/25 10:18:02;;;;;;;6.63;4.90;;;25.80;62.80;;;;;;5075123;28;20167;-88
2022/06/25 10:20:29;;;;;;;7.28;3.67;;;25.50;61.70;;;;;;5074583;28;20196;-87
2022/06/25 10:22:55;;;;;;;6.00;4.10;;;25.70;62.90;;;;;;5074394;28;20175;-87
2022/06/25 10:25:24;;;;;;;7.05;4.50;;;25.60;61.40;;;;;;5074363;28;20280;-85
2022/06/25 10:27:51;;;;;;;4.20;3.75;;;25.80;61.40;;;;;;5073578;28;20163;-85
2022/06/25 10:30:49;;;;;;;5.72;3.00;;;25.70;62.40;;;;;;5074263;28;20632;-85
2022/06/25 10:33:23;;;;;;;3.50;2.78;;;26.50;61.40;;;;;;5073638;28;20194;-85
2022/06/25 10:35:50;;;;;;;3.35;2.42;;;26.00;59.50;;;;;;5074815;28;20170;-85
2022/06/25 10:38:21;;;;;;;7.57;3.60;;;25.80;60.40;;;;;;5074399;28;20171;-85
2022/06/25 10:43:54;;;;;;;3.20;2.53;;;26.20;59.30;;;;;;5076333;28;20244;-85
2022/06/25 10:46:30;;;;;;;6.43;4.75;;;26.60;63.10;;;;;;5076154;28;20628;-86
2022/06/25 10:49:11;;;;;;;11.63;4.20;;;26.30;60.60;;;;;;5076098;28;20194;-85
2022/06/25 10:51:47;;;;;;;5.07;4.18;;;26.50;61.20;;;;;;5075819;28;20183;-86
2022/06/25 10:54:22;;;;;;;4.55;3.13;;;26.90;58.70;;;;;;5076074;28;20533;-86
2022/06/25 10:56:49;;;;;;;6.32;3.55;;;26.70;60.50;;;;;;5074598;28;20712;-86
2022/06/25 10:59:34;;;;;;;5.97;3.63;;;26.50;59.20;;;;;;5074621;28;20179;-86
2022/06/25 11:02:06;;;;;;;4.75;2.95;;;26.70;59.50;;;;;;5074058;28;20171;-86
2022/06/25 11:04:32;;;;;;;3.10;2.30;;;26.70;56.20;;;;;;5074110;28;20218;-86
2022/06/25 11:07:11;;;;;;;4.50;2.92;;;26.90;58.50;;;;;;5074779;28;20168;-86
2022/06/25 11:09:38;;;;;;;3.97;3.20;;;27.20;58.60;;;;;;5075257;28;20191;-86
2022/06/25 11:12:06;;;;;;;4.35;3.17;;;27.50;58.00;;;;;;5074919;28;20183;-85
2022/06/25 11:14:32;;;;;;;5.97;3.55;;;27.20;60.30;;;;;;5074457;28;20176;-85
2022/06/25 11:17:09;;;;;;;3.55;3.25;;;27.30;56.00;;;;;;5074946;28;20179;-85
2022/06/25 11:19:35;;;;;;;7.72;3.67;;;26.80;58.50;;;;;;5073991;28;20531;-86
2022/06/25 11:22:02;;;;;;;3.42;2.83;;;27.10;56.10;;;;;;5074603;28;20167;-86
2022/06/25 11:24:29;;;;;;;5.55;2.50;;;27.20;56.00;;;;;;5073562;28;20673;-86
2022/06/25 11:29:51;;;;;;;4.20;2.42;;;27.40;57.80;;;;;;5074949;28;20221;-86
2022/06/25 11:32:26;;;;;;;2.45;2.25;;;27.30;56.80;;;;;;5075693;28;20566;-86
2022/06/25 11:35:00;;;;;;;6.07;2.65;;;27.10;59.60;;;;;;5073580;28;20185;-86
2022/06/25 11:37:26;;;;;;;6.22;2.58;;;27.20;57.90;;;;;;5074931;28;20644;-86
2022/06/25 11:39:53;;;;;;;3.00;2.60;;;26.90;56.60;;;;;;5078653;28;20234;-86
2022/06/25 11:42:19;;;;;;;4.57;2.67;;;26.70;57.20;;;;;;5079355;28;20247;-86
2022/06/25 11:45:04;;;;;;;3.42;2.72;;;26.90;54.40;;;;;;5076758;28;20297;-86
2022/06/25 11:47:30;;;;;;;4.82;2.70;;;26.90;56.80;;;;;;5078493;28;20170;-86
2022/06/25 11:49:56;;;;;;;3.13;2.80;;;27.20;59.00;;;;;;5078479;28;20187;-85
2022/06/25 11:52:23;;;;;;;6.18;2.63;;;27.20;55.30;;;;;;5078645;28;20171;-85
2022/06/25 11:54:51;;;;;;;5.53;3.10;;;27.60;53.90;;;;;;5078315;28;20167;-85
2022/06/25 11:57:27;;;;;;;3.22;2.30;;;27.60;54.60;;;;;;5077689;28;20661;-86
2022/06/25 11:59:54;;;;;;;4.15;3.10;;;28.10;55.10;;;;;;5076625;28;20211;-85
2022/06/25 12:02:21;;;;;;;3.45;2.55;;;28.20;54.90;;;;;;5077742;28;20194;-85
2022/06/25 12:04:52;;;;;;;2.88;2.30;;;27.90;54.10;;;;;;5078017;28;20268;-86
2022/06/25 12:07:27;;;;;;;2.75;2.05;;;27.90;53.80;;;;;;5077363;28;20186;-85
2022/06/25 12:10:02;;;;;;;3.03;1.90;;;27.70;51.40;;;;;;5075767;28;20190;-86
2022/06/25 12:12:28;;;;;;;3.78;1.95;;;27.90;50.30;;;;;;5077079;28;20727;-85
2022/06/25 12:14:56;;;;;;;4.15;2.00;;;27.80;51.80;;;;;;5077424;28;20637;-87
2022/06/25 12:17:21;;;;;;;5.95;2.20;;;28.20;51.20;;;;;;5077420;28;20176;-85
2022/06/25 12:19:54;;;;;;;2.95;2.13;;;28.70;50.30;;;;;;5077317;28;20171;-85
2022/06/25 12:22:24;;;;;;;4.03;2.40;;;28.80;50.80;;;;;;5077546;28;20175;-85
2022/06/25 12:24:51;;;;;;;4.57;1.85;;;28.70;49.50;;;;;;5077930;28;20196;-85
2022/06/25 12:27:16;;;;;;;2.88;2.00;;;28.90;51.40;;;;;;5078201;28;20174;-85
2022/06/25 12:29:48;;;;;;;8.95;1.83;;;28.60;47.70;;;;;;5078081;28;20605;-86
2022/06/25 12:32:14;;;;;;;3.08;2.10;;;28.80;46.90;;;;;;5078065;28;20156;-85
2022/06/25 12:34:49;;;;;;;2.05;1.70;;;28.90;50.40;;;;;;5077782;28;20175;-86
2022/06/25 12:37:32;;;;;;;1.83;1.60;;;28.60;53.00;;;;;;5077352;28;20679;-86
2022/06/25 12:39:59;;;;;;;2.08;1.65;;;29.00;49.00;;;;;;5077334;28;20201;-86
2022/06/25 12:42:29;;;;;;;1.98;1.73;;;29.30;49.90;;;;;;5077483;28;20197;-86
2022/06/25 12:44:56;;;;;;;3.80;1.60;;;29.60;48.70;;;;;;5077317;28;20723;-86